Flagstaff, AZ

1:15 PM MST on May 22, 2017 (GMT -0700)
Lowell Observatory | | Change Station

Elev 7247 ft 35.20 °N, 111.67 °W | Updated 1 minute ago

Partly Cloudy
Partly Cloudy
69.4 °F
Feels Like 69.4 °F
N
11.0
Wind Variable Wind from NW
Gusts 20.0 mph

Today
High -- | Low -- °F
--% Chance of Precip.
Yesterday
High -- | Low -- °F
Precip. -- in
Pressure 30.02 in
Visibility 10.0 miles
Clouds Scattered Clouds 11000 ft
Dew Point 28 °F
Humidity 21%
Rainfall 0.00 in
Snow Depth Not available.
5:17 AM 7:29 PM
Waning Crescent, 13% visible
METAR KFLG 221957Z 32008G22KT 290V350 10SM SCT110 21/M06 A3026 RMK AO2 SLP164 T02061056
Pressure 30.02 in
Visibility 10.0 miles
Clouds Scattered Clouds 11000 ft
Dew Point 28 °F
Humidity 21%
Rainfall 0.00 in
Snow Depth Not available.
5:17 AM 7:29 PM
Waning Crescent, 13% visible
METAR KFLG 221957Z 32008G22KT 290V350 10SM SCT110 21/M06 A3026 RMK AO2 SLP164 T02061056

Get Severe Weather Alerts

Thanks for signing up!

Be on the lookout for a verification email in your inbox.

You'll start receiving the daily forecast at 6 AM.

×

10-Day Weather Forecast

Almanac

Astronomy

May. 22, 2017 Rise Set
Actual Time
Civil Twilight
Nautical Twilight
Astronomical Twilight
Moon
Length of Visible Light
Length of Day
Tomorrow will be .
, % of the Moon is Illuminated

Today's Extremes

State Highs State Lows

Community

WunderPhotos

Category 6

Welcome to Category 6. This is the collective home for Weather Underground's featured writeups by Dr. Jeff Masters (right), Bob Henson (left), Chris Burt, and other regular contributors.

Nearby

Air Quality

  Air Quality AQ Index Pollutant
Not available.

Snow Depth

Station Depth Elevation

Earthquake Activity

City Distance Mag. Time & Date
Minimum magnitude displayed is 2.5.

Coastal Water Temperatures

Place Temperature

Stations

Nearby Weather Stations

Station Location Temp. Windchill Dew Point Humidity Wind Precip. Elev Updated Type
                   

Watches & Warnings

There are currently no watches in effect.